This is the latest recevied weather packets stored in our database for station/object EFTU. If no packets are shown the sender has not sent any weather packets the latest 10 day(s).
| Time | Temp. | Humidity | Pressure | Rain* | Wind** | Luminosity | Snow |
|---|---|---|---|---|---|---|---|
| 1777673225 | 6.11° C | 84% | 1014.1 hPa | - | - | - | - |
| 1777672024 | 6.67° C | 83% | 1014.1 hPa | - | - | - | - |
| 1777670824 | 7.22° C | 81% | 1014.2 hPa | - | - | - | - |
| 1777669624 | 7.78° C | 77% | 1014.5 hPa | - | - | - | - |
| 1777668424 | 8.33° C | 75% | 1014.6 hPa | - | - | - | - |
| 1777667224 | 8.89° C | 72% | 1014.8 hPa | - | - | - | - |
| 1777666023 | 9.44° C | 70% | 1015 hPa | - | - | - | - |
| 1777664823 | 10° C | 68% | 1015.1 hPa | - | - | - | - |
| 1777663624 | 10.56° C | 64% | 1015.3 hPa | - | - | - | - |
| 1777662424 | 11.11° C | 62% | 1015.4 hPa | - | - | - | - |
| 1777661224 | 11.67° C | 60% | 1015.5 hPa | - | - | - | - |
| 1777660023 | 12.22° C | 57% | 1015.6 hPa | - | - | - | - |
| 1777658824 | 13.33° C | 54% | 1015.6 hPa | - | - | - | - |
| 1777657623 | 15° C | 49% | 1015.6 hPa | - | - | - | - |
| 1777656423 | 15.56° C | 47% | 1015.6 hPa | - | - | - | - |
| 1777655224 | 15.56° C | 45% | 1015.8 hPa | - | - | - | - |
| 1777654023 | 16.67° C | 42% | 1016 hPa | - | - | - | - |
| 1777652823 | 17.22° C | 38% | 1016.3 hPa | - | - | - | - |
| 1777651623 | 16.67° C | 37% | 1016.6 hPa | - | - | - | - |
| 1777650423 | 17.22° C | 36% | 1017 hPa | - | - | - | - |
| 1777649223 | 17.78° C | 34% | 1017.2 hPa | - | - | - | - |
| 1777648022 | 17.78° C | 32% | 1017.2 hPa | - | - | - | - |
| 1777646822 | 18.33° C | 30% | 1017.4 hPa | - | - | - | - |
| 1777645623 | 17.78° C | 32% | 1017.7 hPa | - | - | - | - |
| 1777644422 | 17.22° C | 36% | 1018 hPa | - | - | - | - |
* Rain since midnight (hover to see other rain measurements)
** Current wind speed in m/s (hover to see current wind gust speed)